| time (UTC) | temp C | wind direction | speed KPH | gust KPH | rain 1hr cm | rain 24hr cm | rain mn cm | humidity % | barometer mb |
| 20260510153510 | 17 | 6 | 16.1 | 27.4 | 0.00 | 0.00 | 0.00 | 77 | 1020.7 |
| 20260510153008 | 18 | 8 | 17.7 | 25.7 | 0.00 | 0.00 | 0.00 | 77 | 1020.8 |
| 20260510152505 | 18 | 88 | 8.0 | 16.1 | 0.00 | 0.00 | 0.00 | 78 | 1020.8 |
| 20260510152001 | 18 | 47 | 4.8 | 16.1 | 0.00 | 0.00 | 0.00 | 78 | 1020.7 |
| 20260510151458 | 18 | 90 | 3.2 | 17.7 | 0.00 | 0.00 | 0.00 | 76 | 1020.7 |
| 20260510150955 | 18 | 77 | 3.2 | 11.3 | 0.00 | 0.00 | 0.00 | 76 | 1020.8 |
| 20260510150450 | 18 | 38 | 6.4 | 17.7 | 0.00 | 0.00 | 0.00 | 76 | 1020.7 |
| 20260510145946 | 18 | 18 | 4.8 | 16.1 | 0.00 | 0.00 | 0.00 | 77 | 1020.8 |
| 20260510145442 | 18 | 248 | 3.2 | 11.3 | 0.00 | 0.00 | 0.00 | 77 | 1020.7 |
| 20260510144938 | 17 | 83 | 4.8 | 9.7 | 0.00 | 0.00 | 0.00 | 77 | 1021.0 |
| 20260510144435 | 18 | 119 | 4.8 | 8.0 | 0.00 | 0.00 | 0.00 | 78 | 1021.1 |
| 20260510143931 | 17 | 16 | 14.5 | 19.3 | 0.00 | 0.00 | 0.00 | 78 | 1020.9 |
| 20260510143426 | 17 | 68 | 4.8 | 16.1 | 0.00 | 0.00 | 0.00 | 78 | 1021.1 |
| 20260510142924 | 17 | 13 | 16.1 | 16.1 | 0.00 | 0.00 | 0.00 | 79 | 1021.0 |
| 20260510142421 | 17 | 354 | 6.4 | 16.1 | 0.00 | 0.00 | 0.00 | 79 | 1021.0 |
| 20260510141918 | 17 | 349 | 3.2 | 17.7 | 0.00 | 0.00 | 0.00 | 78 | 1021.3 |
| 20260510141415 | 17 | 328 | 3.2 | 14.5 | 0.00 | 0.00 | 0.00 | 78 | 1021.1 |
| 20260510140912 | 17 | 7 | 8.0 | 16.1 | 0.00 | 0.00 | 0.00 | 78 | 1021.1 |
| 20260510140408 | 17 | 30 | 3.2 | 11.3 | 0.00 | 0.00 | 0.00 | 79 | 1021.0 |
| 20260510135906 | 17 | 1 | 14.5 | 17.7 | 0.00 | 0.00 | 0.00 | 79 | 1021.1 |
| 20260510135403 | 17 | 3 | 11.3 | 17.7 | 0.00 | 0.00 | 0.00 | 78 | 1021.1 |
| 20260510134900 | 17 | 90 | 1.6 | 12.9 | 0.00 | 0.00 | 0.00 | 78 | 1021.0 |
| 20260510134357 | 17 | 6 | 12.9 | 14.5 | 0.00 | 0.00 | 0.00 | 78 | 1020.9 |
| 20260510133853 | 18 | 90 | 1.6 | 11.3 | 0.00 | 0.00 | 0.00 | 79 | 1021.1 |
| 20260510133349 | 17 | 67 | 9.7 | 19.3 | 0.00 | 0.00 | 0.00 | 79 | 1020.7 |
| 20260510132845 | 17 | 344 | 8.0 | 16.1 | 0.00 | 0.00 | 0.00 | 79 | 1020.7 |
| 20260510132343 | 17 | 2 | 9.7 | 14.5 | 0.00 | 0.00 | 0.00 | 79 | 1020.5 |
| 20260510131840 | 17 | 15 | 14.5 | 22.5 | 0.00 | 0.00 | 0.00 | 78 | 1020.3 |
| 20260510131337 | 17 | 338 | 3.2 | 20.9 | 0.00 | 0.00 | 0.00 | 79 | 1020.2 |
| 20260510130834 | 17 | 8 | 8.0 | 16.1 | 0.00 | 0.00 | 0.00 | 78 | 1020.1 |
| 20260510130331 | 17 | 352 | 4.8 | 9.7 | 0.00 | 0.00 | 0.00 | 79 | 1020.1 |
| 20260510125827 | 16 | 50 | 4.8 | 8.0 | 0.00 | 0.00 | 0.00 | 78 | 1020.1 |
| 20260510125323 | 17 | 297 | 3.2 | 4.8 | 0.00 | 0.00 | 0.00 | 77 | 1019.8 |
| 20260510124820 | 17 | 8 | 0.0 | 8.0 | 0.00 | 0.00 | 0.00 | 77 | 1019.7 |
| 20260510124318 | 17 | 331 | 4.8 | 9.7 | 0.00 | 0.00 | 0.00 | 80 | 1019.7 |
| 20260510123813 | 16 | 5 | 9.7 | 14.5 | 0.00 | 0.00 | 0.00 | 79 | 1019.8 |
| 20260510123309 | 16 | 0 | 4.8 | 8.0 | 0.00 | 0.00 | 0.00 | 80 | 1019.7 |
| 20260510122805 | 16 | 313 | 4.8 | 4.8 | 0.00 | 0.00 | 0.00 | 83 | 1019.7 |
| 20260510122301 | 15 | 326 | 3.2 | 8.0 | 0.00 | 0.00 | 0.00 | 84 | 1019.5 |
| 20260510121758 | 15 | 317 | 6.4 | 8.0 | 0.00 | 0.00 | 0.00 | 84 | 1019.8 |
| 20260510121256 | 15 | 324 | 6.4 | 8.0 | 0.00 | 0.00 | 0.00 | 85 | 1019.4 |
| 20260510120753 | 15 | 333 | 9.7 | 11.3 | 0.00 | 0.00 | 0.00 | 83 | 1019.5 |
| 20260510120249 | 16 | 339 | 16.1 | 24.1 | 0.00 | 0.00 | 0.00 | 83 | 1019.3 |
| 20260510115745 | 17 | 198 | 4.8 | 8.0 | 0.00 | 0.00 | 0.00 | 82 | 1018.9 |
| 20260510115243 | 16 | 168 | 8.0 | 12.9 | 0.00 | 0.00 | 0.00 | 83 | 1018.9 |
| 20260510114738 | 16 | 173 | 8.0 | 11.3 | 0.00 | 0.00 | 0.00 | 85 | 1018.4 |
| 20260510114236 | 15 | 205 | 4.8 | 9.7 | 0.00 | 0.00 | 0.00 | 87 | 1018.6 |
| 20260510113731 | 15 | 202 | 8.0 | 9.7 | 0.00 | 0.00 | 0.00 | 87 | 1018.6 |
| 20260510113228 | 16 | 179 | 6.4 | 12.9 | 0.00 | 0.00 | 0.00 | 85 | 1018.5 |
| 20260510112724 | 16 | 163 | 8.0 | 9.7 | 0.00 | 0.00 | 0.00 | 86 | 1018.5 |
| 20260510112221 | 15 | 174 | 9.7 | 9.7 | 0.00 | 0.00 | 0.00 | 88 | 1018.4 |
| 20260510111717 | 14 | 177 | 8.0 | 8.0 | 0.00 | 0.00 | 0.00 | 91 | 1018.3 |
| 20260510111215 | 14 | 170 | 6.4 | 6.4 | 0.00 | 0.00 | 0.00 | 91 | 1018.3 |
| 20260510110714 | 13 | 170 | 4.8 | 4.8 | 0.00 | 0.00 | 0.00 | 91 | 1018.2 |
| 20260510110213 | 13 | 239 | 3.2 | 4.8 | 0.00 | 0.00 | 0.00 | 90 | 1018.1 |
| 20260510105712 | 14 | 195 | 3.2 | 4.8 | 0.00 | 0.00 | 0.00 | 89 | 1018.3 |
| 20260510105207 | 14 | 182 | 4.8 | 6.4 | 0.00 | 0.00 | 0.00 | 90 | 1018.4 |
| 20260510104704 | 14 | 183 | 4.8 | 4.8 | 0.00 | 0.00 | 0.00 | 88 | 1018.1 |
| 20260510104201 | 14 | 188 | 3.2 | 4.8 | 0.00 | 0.00 | 0.00 | 87 | 1018.0 |
| 20260510103658 | 14 | 176 | 3.2 | 6.4 | 0.00 | 0.00 | 0.00 | 87 | 1018.2 |
| 20260510103155 | 14 | 189 | 3.2 | 4.8 | 0.00 | 0.00 | 0.00 | 87 | 1018.3 |
| 20260510102655 | 13 | 234 | 0.0 | 3.2 | 0.00 | 0.00 | 0.00 | 87 | 1018.0 |
| 20260510102151 | 14 | 214 | 3.2 | 4.8 | 0.00 | 0.00 | 0.00 | 88 | 1018.4 |
| 20260510101648 | 14 | 194 | 4.8 | 4.8 | 0.00 | 0.00 | 0.00 | 86 | 1018.1 |
| 20260510101147 | 15 | 141 | 3.2 | 4.8 | 0.00 | 0.00 | 0.00 | 85 | 1018.2 |
| 20260510100642 | 15 | 180 | 4.8 | 8.0 | 0.00 | 0.00 | 0.00 | 83 | 1018.4 |
| 20260510100140 | 15 | 186 | 4.8 | 4.8 | 0.00 | 0.00 | 0.00 | 81 | 1018.2 |
| 20260510095635 | 15 | 215 | 0.0 | 4.8 | 0.00 | 0.00 | 0.00 | 81 | 1018.3 |
| 20260510095131 | 15 | 209 | 3.2 | 4.8 | 0.00 | 0.00 | 0.00 | 80 | 1018.0 |
| 20260510094629 | 16 | 216 | 3.2 | 3.2 | 0.00 | 0.00 | 0.00 | 78 | 1017.9 |
| 20260510094125 | 16 | 200 | 1.6 | 4.8 | 0.00 | 0.00 | 0.00 | 77 | 1017.7 |
| 20260510093622 | 16 | 270 | 3.2 | 3.2 | 0.00 | 0.00 | 0.00 | 78 | 1017.7 |
| 20260510093119 | 16 | 212 | 3.2 | 3.2 | 0.00 | 0.00 | 0.00 | 77 | 1017.4 |
| 20260510092615 | 16 | 228 | 3.2 | 6.4 | 0.00 | 0.00 | 0.00 | 78 | 1017.5 |
| 20260510092115 | 16 | 180 | 0.0 | 3.2 | 0.00 | 0.00 | 0.00 | 75 | 1017.4 |
| 20260510091612 | 17 | 225 | 6.4 | 6.4 | 0.00 | 0.00 | 0.00 | 75 | 1017.5 |
| 20260510091108 | 17 | 222 | 4.8 | 8.0 | 0.00 | 0.00 | 0.00 | 71 | 1017.4 |
| 20260510090605 | 16 | 152 | 3.2 | 8.0 | 0.00 | 0.00 | 0.00 | 75 | 1017.6 |
| 20260510090101 | 17 | 158 | 3.2 | 6.4 | 0.00 | 0.00 | 0.00 | 73 | 1017.3 |
| 20260510085556 | 17 | 152 | 8.0 | 8.0 | 0.00 | 0.00 | 0.00 | 74 | 1017.3 |
| 20260510085052 | 16 | 193 | 4.8 | 4.8 | 0.00 | 0.00 | 0.00 | 74 | 1017.3 |
| 20260510084549 | 16 | 349 | 3.2 | 4.8 | 0.00 | 0.00 | 0.00 | 76 | 1017.3 |
| 20260510084045 | 16 | 139 | 3.2 | 4.8 | 0.00 | 0.00 | 0.00 | 79 | 1017.3 |
| 20260510083542 | 16 | 158 | 3.2 | 4.8 | 0.00 | 0.00 | 0.00 | 81 | 1017.2 |
| 20260510083038 | 16 | 334 | 0.0 | 4.8 | 0.00 | 0.00 | 0.00 | 79 | 1017.4 |
| 20260510082535 | 16 | 324 | 4.8 | 4.8 | 0.00 | 0.00 | 0.00 | 78 | 1017.2 |
| 20260510082031 | 16 | 15 | 0.0 | 4.8 | 0.00 | 0.00 | 0.00 | 78 | 1017.4 |
| 20260510081526 | 16 | 334 | 8.0 | 14.5 | 0.00 | 0.00 | 0.00 | 79 | 1017.2 |
| 20260510081022 | 16 | 353 | 12.9 | 16.1 | 0.00 | 0.00 | 0.00 | 79 | 1017.1 |
| 20260510080521 | 16 | 346 | 17.7 | 20.9 | 0.00 | 0.00 | 0.00 | 79 | 1016.9 |
| 20260510080018 | 17 | 357 | 3.2 | 4.8 | 0.00 | 0.00 | 0.00 | 80 | 1016.6 |
| 20260510075515 | 17 | 337 | 0.0 | 3.2 | 0.00 | 0.00 | 0.00 | 75 | 1016.6 |
| 20260510075006 | 17 | 0 | 0.0 | 3.2 | 0.00 | 0.00 | 0.00 | 71 | 1016.1 |
| 20260510074504 | 17 | 130 | 4.8 | 4.8 | 0.00 | 0.00 | 0.00 | 72 | 1016.1 |
| 20260510073959 | 17 | 147 | 4.8 | 6.4 | 0.00 | 0.00 | 0.00 | 73 | 1016.3 |
| 20260510073455 | 17 | 166 | 6.4 | 8.0 | 0.00 | 0.00 | 0.00 | 71 | 1016.4 |
| 20260510072952 | 17 | 169 | 9.7 | 11.3 | 0.00 | 0.00 | 0.00 | 70 | 1016.4 |
| 20260510072449 | 17 | 194 | 6.4 | 16.1 | 0.00 | 0.00 | 0.00 | 72 | 1016.6 |
| 20260510071944 | 17 | 177 | 8.0 | 12.9 | 0.00 | 0.00 | 0.00 | 73 | 1016.6 |
| 20260510071441 | 17 | 196 | 6.4 | 11.3 | 0.00 | 0.00 | 0.00 | 73 | 1016.4 |
| 20260510070939 | 17 | 194 | 8.0 | 16.1 | 0.00 | 0.00 | 0.00 | 74 | 1016.5 |
| 20260510070436 | 16 | 185 | 6.4 | 12.9 | 0.00 | 0.00 | 0.00 | 77 | 1016.5 |
| 20260510065932 | 16 | 194 | 4.8 | 6.4 | 0.00 | 0.00 | 0.00 | 81 | 1016.6 |
| 20260510065429 | 16 | 216 | 3.2 | 4.8 | 0.00 | 0.00 | 0.00 | 80 | 1016.6 |
| 20260510064925 | 16 | 228 | 3.2 | 4.8 | 0.00 | 0.00 | 0.00 | 79 | 1016.5 |
| 20260510064423 | 17 | 180 | 4.8 | 8.0 | 0.00 | 0.00 | 0.00 | 75 | 1016.7 |
| 20260510063919 | 16 | 186 | 6.4 | 9.7 | 0.00 | 0.00 | 0.00 | 76 | 1016.5 |
| 20260510063415 | 16 | 170 | 14.5 | 14.5 | 0.00 | 0.00 | 0.00 | 77 | 1016.7 |
| 20260510062913 | 15 | 172 | 6.4 | 11.3 | 0.00 | 0.00 | 0.00 | 81 | 1016.7 |
| 20260510062408 | 15 | 178 | 6.4 | 8.0 | 0.00 | 0.00 | 0.00 | 86 | 1016.6 |
| 20260510061904 | 14 | 167 | 8.0 | 9.7 | 0.00 | 0.00 | 0.00 | 88 | 1016.7 |
| 20260510061401 | 14 | 174 | 6.4 | 6.4 | 0.00 | 0.00 | 0.00 | 90 | 1016.9 |
| 20260510060856 | 14 | 167 | 4.8 | 4.8 | 0.00 | 0.00 | 0.00 | 89 | 1016.8 |
| 20260510060354 | 14 | 188 | 3.2 | 4.8 | 0.00 | 0.00 | 0.00 | 90 | 1017.1 |
| 20260510055850 | 14 | 206 | 0.0 | 3.2 | 0.00 | 0.00 | 0.00 | 92 | 1017.0 |
| 20260510055349 | 14 | 203 | 0.0 | 3.2 | 0.00 | 0.00 | 0.00 | 92 | 1017.1 |
| 20260510054843 | 14 | 206 | 0.0 | 3.2 | 0.00 | 0.00 | 0.00 | 93 | 1017.1 |
| 20260510054339 | 13 | 234 | 0.0 | 3.2 | 0.00 | 0.00 | 0.00 | 91 | 1017.1 |
| 20260510053833 | 13 | 220 | 3.2 | 3.2 | 0.00 | 0.00 | 0.00 | 92 | 1017.4 |
| 20260510053329 | 13 | 254 | 1.6 | 3.2 | 0.00 | 0.00 | 0.00 | 92 | 1017.3 |
| 20260510052826 | 13 | 180 | 3.2 | 3.2 | 0.00 | 0.00 | 0.00 | 92 | 1017.1 |
| 20260510052322 | 13 | 188 | 0.0 | 3.2 | 0.00 | 0.00 | 0.00 | 93 | 1017.4 |
| 20260510051818 | 13 | 239 | 3.2 | 3.2 | 0.00 | 0.00 | 0.00 | 92 | 1017.2 |
| 20260510051315 | 13 | 257 | 0.0 | 3.2 | 0.00 | 0.00 | 0.00 | 92 | 1017.0 |
| 20260510050812 | 13 | 276 | 0.0 | 3.2 | 0.00 | 0.00 | 0.00 | 91 | 1017.0 |
| 20260510050309 | 13 | 217 | 3.2 | 3.2 | 0.00 | 0.00 | 0.00 | 91 | 1016.9 |
| 20260510045806 | 13 | 236 | 3.2 | 4.8 | 0.00 | 0.00 | 0.00 | 93 | 1016.7 |
| 20260510045306 | 13 | 219 | 3.2 | 4.8 | 0.00 | 0.00 | 0.00 | 93 | 1017.0 |
| 20260510044759 | 13 | 209 | 3.2 | 3.2 | 0.00 | 0.00 | 0.00 | 93 | 1016.9 |
| 20260510044256 | 13 | 185 | 3.2 | 3.2 | 0.00 | 0.00 | 0.00 | 92 | 1016.9 |
| 20260510043752 | 13 | 206 | 1.6 | 4.8 | 0.00 | 0.00 | 0.00 | 92 | 1016.7 |
| 20260510043243 | 14 | 203 | 3.2 | 3.2 | 0.00 | 0.00 | 0.00 | 93 | 1016.8 |
| 20260510042740 | 13 | 148 | 3.2 | 4.8 | 0.00 | 0.00 | 0.00 | 93 | 1017.0 |
| 20260510042236 | 13 | 209 | 3.2 | 3.2 | 0.00 | 0.00 | 0.00 | 92 | 1016.8 |
| 20260510041732 | 13 | 246 | 1.6 | 3.2 | 0.00 | 0.00 | 0.00 | 90 | 1016.9 |
| 20260510041230 | 13 | 228 | 3.2 | 3.2 | 0.00 | 0.00 | 0.00 | 91 | 1016.8 |
| 20260510040726 | 13 | 213 | 3.2 | 3.2 | 0.00 | 0.00 | 0.00 | 91 | 1016.8 |
| 20260510040223 | 13 | 194 | 3.2 | 3.2 | 0.00 | 0.00 | 0.00 | 91 | 1016.8 |
| 20260510035718 | 14 | 212 | 3.2 | 4.8 | 0.00 | 0.00 | 0.00 | 90 | 1016.8 |
| 20260510035215 | 14 | 217 | 4.8 | 4.8 | 0.00 | 0.00 | 0.00 | 90 | 1016.7 |
| 20260510034711 | 14 | 228 | 3.2 | 4.8 | 0.00 | 0.00 | 0.00 | 89 | 1016.7 |
| 20260510034209 | 15 | 197 | 3.2 | 4.8 | 0.00 | 0.00 | 0.00 | 88 | 1016.8 |
| 20260510033704 | 15 | 173 | 1.6 | 4.8 | 0.00 | 0.00 | 0.00 | 87 | 1016.4 |
| 20260510033203 | 15 | 194 | 4.8 | 4.8 | 0.00 | 0.00 | 0.00 | 86 | 1016.0 |
| 20260510032658 | 16 | 192 | 0.0 | 3.2 | 0.00 | 0.00 | 0.00 | 86 | 1016.1 |
| 20260510032154 | 16 | 213 | 0.0 | 3.2 | 0.00 | 0.00 | 0.00 | 83 | 1015.9 |
| 20260510031648 | 16 | 237 | 3.2 | 4.8 | 0.00 | 0.00 | 0.00 | 82 | 1015.9 |
| 20260510031146 | 16 | 99 | 0.0 | 3.2 | 0.00 | 0.00 | 0.00 | 84 | 1015.8 |
| 20260510030640 | 15 | 353 | 0.0 | 3.2 | 0.00 | 0.00 | 0.00 | 86 | 1015.7 |
| 20260510030138 | 15 | 270 | 0.0 | 3.2 | 0.00 | 0.00 | 0.00 | 86 | 1015.6 |
| 20260510025635 | 15 | 229 | 3.2 | 3.2 | 0.00 | 0.00 | 0.00 | 85 | 1015.8 |
| 20260510025132 | 15 | 214 | 3.2 | 3.2 | 0.00 | 0.00 | 0.00 | 84 | 1015.8 |
| 20260510024629 | 16 | 221 | 3.2 | 3.2 | 0.00 | 0.00 | 0.00 | 85 | 1015.6 |
| 20260510024126 | 16 | 263 | 1.6 | 3.2 | 0.00 | 0.00 | 0.00 | 85 | 1015.7 |
| 20260510023621 | 16 | 202 | 3.2 | 3.2 | 0.00 | 0.00 | 0.00 | 84 | 1015.5 |
| 20260510023119 | 16 | 190 | 4.8 | 4.8 | 0.00 | 0.00 | 0.00 | 84 | 1015.3 |
| 20260510022619 | 16 | 183 | 4.8 | 4.8 | 0.00 | 0.00 | 0.00 | 83 | 1015.0 |
| 20260510022114 | 17 | 188 | 3.2 | 3.2 | 0.00 | 0.00 | 0.00 | 82 | 1014.8 |
| 20260510021605 | 16 | 196 | 3.2 | 3.2 | 0.00 | 0.00 | 0.00 | 82 | 1015.1 |
| 20260510021102 | 16 | 177 | 3.2 | 4.8 | 0.00 | 0.00 | 0.00 | 82 | 1015.0 |
| 20260510020555 | 17 | 180 | 3.2 | 4.8 | 0.00 | 0.00 | 0.00 | 77 | 1014.8 |
| 20260510020051 | 17 | 203 | 3.2 | 3.2 | 0.00 | 0.00 | 0.00 | 77 | 1014.5 |
| 20260510015548 | 17 | 175 | 1.6 | 4.8 | 0.00 | 0.00 | 0.00 | 76 | 1014.4 |
| 20260510015044 | 17 | 203 | 3.2 | 4.8 | 0.00 | 0.00 | 0.00 | 78 | 1014.5 |
| 20260510014540 | 17 | 194 | 3.2 | 4.8 | 0.00 | 0.00 | 0.00 | 77 | 1014.2 |
| 20260510014037 | 17 | 204 | 0.0 | 3.2 | 0.00 | 0.00 | 0.00 | 76 | 1014.2 |
| 20260510013531 | 18 | 194 | 1.6 | 3.2 | 0.00 | 0.00 | 0.00 | 74 | 1014.0 |
| 20260510013028 | 18 | 198 | 3.2 | 3.2 | 0.00 | 0.00 | 0.00 | 71 | 1014.0 |
| 20260510012522 | 19 | 198 | 3.2 | 4.8 | 0.00 | 0.00 | 0.00 | 72 | 1014.1 |
| 20260510012019 | 19 | 191 | 3.2 | 3.2 | 0.00 | 0.00 | 0.00 | 71 | 1013.8 |
| 20260510011518 | 20 | 233 | 3.2 | 3.2 | 0.00 | 0.00 | 0.00 | 73 | 1013.7 |
| 20260510011014 | 20 | 233 | 3.2 | 3.2 | 0.00 | 0.00 | 0.00 | 73 | 1013.5 |
| 20260510010511 | 21 | 217 | 3.2 | 3.2 | 0.00 | 0.00 | 0.00 | 69 | 1013.8 |
| 20260510010008 | 21 | 210 | 3.2 | 4.8 | 0.00 | 0.00 | 0.00 | 69 | 1013.8 |
| 20260510005504 | 22 | 209 | 3.2 | 3.2 | 0.00 | 0.00 | 0.00 | 72 | 1013.7 |
| 20260510005001 | 23 | 199 | 3.2 | 4.8 | 0.00 | 0.00 | 0.00 | 68 | 1013.5 |
| 20260510004459 | 24 | 218 | 3.2 | 3.2 | 0.00 | 0.00 | 0.00 | 68 | 1013.5 |
| 20260510003957 | 25 | 228 | 3.2 | 3.2 | 0.00 | 0.00 | 0.00 | 56 | 1013.9 |
| 20260510003453 | 23 | 253 | 3.2 | 3.2 | 0.00 | 0.00 | 0.00 | 57 | 1013.4 |
| 20260510002948 | 23 | 166 | 3.2 | 4.8 | 0.00 | 0.00 | 0.00 | 57 | 1013.5 |
| 20260510002444 | 22 | 213 | 3.2 | 3.2 | 0.00 | 0.00 | 0.00 | 64 | 1013.4 |
| 20260510001941 | 23 | 180 | 3.2 | 4.8 | 0.00 | 0.00 | 0.00 | 61 | 1013.8 |
| 20260510001438 | 25 | 191 | 3.2 | 4.8 | 0.00 | 0.00 | 0.00 | 61 | 1013.5 |
| 20260510000936 | 26 | 206 | 3.2 | 4.8 | 0.00 | 0.00 | 0.00 | 50 | 1013.7 |
| 20260510000433 | 27 | 202 | 3.2 | 4.8 | 0.00 | 0.00 | 0.00 | 53 | 1013.5 |
| 20260509235929 | 27 | 204 | 3.2 | 4.8 | 0.00 | 0.00 | 0.00 | 46 | 1013.5 |
| 20260509235426 | 27 | 199 | 4.8 | 4.8 | 0.00 | 0.00 | 0.00 | 41 | 1013.7 |
| 20260509234922 | 27 | 199 | 3.2 | 3.2 | 0.00 | 0.00 | 0.00 | 45 | 1013.5 |
| 20260509234419 | 27 | 202 | 3.2 | 4.8 | 0.00 | 0.00 | 0.00 | 46 | 1013.7 |
| 20260509233917 | 27 | 219 | 4.8 | 4.8 | 0.00 | 0.00 | 0.00 | 41 | 1013.5 |
| 20260509233414 | 27 | 228 | 3.2 | 4.8 | 0.00 | 0.00 | 0.00 | 42 | 1013.7 |
| 20260509232910 | 26 | 237 | 3.2 | 4.8 | 0.00 | 0.00 | 0.00 | 43 | 1013.7 |
| 20260509232408 | 26 | 225 | 4.8 | 4.8 | 0.00 | 0.00 | 0.00 | 46 | 1013.9 |
| 20260509231903 | 27 | 228 | 3.2 | 4.8 | 0.00 | 0.00 | 0.00 | 51 | 1013.5 |
| 20260509231400 | 26 | 240 | 3.2 | 3.2 | 0.00 | 0.00 | 0.00 | 42 | 1013.7 |
| 20260509230858 | 26 | 228 | 3.2 | 4.8 | 0.00 | 0.00 | 0.00 | 44 | 1013.7 |
| 20260509230355 | 27 | 225 | 4.8 | 6.4 | 0.00 | 0.00 | 0.00 | 48 | 1013.7 |
| 20260509225851 | 26 | 220 | 4.8 | 8.0 | 0.00 | 0.00 | 0.00 | 42 | 1013.8 |
| 20260509225348 | 26 | 216 | 6.4 | 8.0 | 0.00 | 0.00 | 0.00 | 45 | 1014.0 |
| 20260509224843 | 26 | 221 | 8.0 | 9.7 | 0.00 | 0.00 | 0.00 | 44 | 1013.9 |
| 20260509224340 | 26 | 202 | 8.0 | 9.7 | 0.00 | 0.00 | 0.00 | 40 | 1013.7 |
| 20260509223837 | 26 | 203 | 6.4 | 9.7 | 0.00 | 0.00 | 0.00 | 42 | 1013.5 |
| 20260509223333 | 25 | 225 | 6.4 | 9.7 | 0.00 | 0.00 | 0.00 | 46 | 1013.5 |
| 20260509222830 | 26 | 233 | 8.0 | 12.9 | 0.00 | 0.00 | 0.00 | 48 | 1013.8 |
| 20260509222326 | 26 | 248 | 8.0 | 8.0 | 0.00 | 0.00 | 0.00 | 43 | 1013.8 |
| 20260509221821 | 27 | 262 | 8.0 | 12.9 | 0.00 | 0.00 | 0.00 | 40 | 1013.7 |
| 20260509221319 | 28 | 252 | 4.8 | 4.8 | 0.00 | 0.00 | 0.00 | 42 | 1013.5 |
| 20260509220814 | 27 | 180 | 4.8 | 9.7 | 0.00 | 0.00 | 0.00 | 40 | 1013.8 |
| 20260509220310 | 27 | 210 | 6.4 | 12.9 | 0.00 | 0.00 | 0.00 | 37 | 1013.7 |
| 20260509215806 | 27 | 233 | 8.0 | 9.7 | 0.00 | 0.00 | 0.00 | 45 | 1013.8 |
| 20260509215306 | 27 | 190 | 6.4 | 9.7 | 0.00 | 0.00 | 0.00 | 39 | 1013.8 |
| 20260509214800 | 27 | 213 | 6.4 | 11.3 | 0.00 | 0.00 | 0.00 | 37 | 1013.8 |
| 20260509214257 | 27 | 225 | 6.4 | 11.3 | 0.00 | 0.00 | 0.00 | 37 | 1013.7 |
| 20260509213754 | 28 | 250 | 4.8 | 6.4 | 0.00 | 0.00 | 0.00 | 36 | 1014.0 |
| 20260509213249 | 28 | 214 | 3.2 | 3.2 | 0.00 | 0.00 | 0.00 | 34 | 1013.9 |
| 20260509212747 | 28 | 324 | 0.0 | 4.8 | 0.00 | 0.00 | 0.00 | 37 | 1014.1 |
| 20260509212244 | 27 | 346 | 0.0 | 11.3 | 0.00 | 0.00 | 0.00 | 38 | 1013.8 |
| 20260509211739 | 27 | 328 | 3.2 | 6.4 | 0.00 | 0.00 | 0.00 | 40 | 1014.0 |
| 20260509211236 | 27 | 323 | 4.8 | 6.4 | 0.00 | 0.00 | 0.00 | 39 | 1014.1 |
| 20260509210732 | 27 | 300 | 4.8 | 12.9 | 0.00 | 0.00 | 0.00 | 44 | 1014.2 |
| 20260509210231 | 27 | 267 | 12.9 | 14.5 | 0.00 | 0.00 | 0.00 | 38 | 1014.3 |
| 20260509205730 | 26 | 251 | 4.8 | 8.0 | 0.00 | 0.00 | 0.00 | 38 | 1014.4 |
| 20260509205229 | 26 | 259 | 9.7 | 17.7 | 0.00 | 0.00 | 0.00 | 39 | 1014.2 |
| 20260509204726 | 27 | 311 | 4.8 | 17.7 | 0.00 | 0.00 | 0.00 | 46 | 1014.3 |
| 20260509204222 | 27 | 251 | 11.3 | 17.7 | 0.00 | 0.00 | 0.00 | 39 | 1014.3 |
| 20260509203718 | 27 | 199 | 4.8 | 8.0 | 0.00 | 0.00 | 0.00 | 45 | 1014.3 |
| 20260509203218 | 27 | 210 | 6.4 | 11.3 | 0.00 | 0.00 | 0.00 | 45 | 1014.3 |
| 20260509202713 | 26 | 177 | 4.8 | 8.0 | 0.00 | 0.00 | 0.00 | 45 | 1014.4 |
| 20260509202208 | 27 | 229 | 6.4 | 9.7 | 0.00 | 0.00 | 0.00 | 45 | 1014.3 |
| 20260509201703 | 26 | 220 | 6.4 | 14.5 | 0.00 | 0.00 | 0.00 | 47 | 1014.3 |
| 20260509201201 | 26 | 220 | 4.8 | 9.7 | 0.00 | 0.00 | 0.00 | 43 | 1014.4 |
| 20260509200656 | 26 | 209 | 9.7 | 12.9 | 0.00 | 0.00 | 0.00 | 46 | 1014.4 |
| 20260509200151 | 26 | 245 | 14.5 | 14.5 | 0.00 | 0.00 | 0.00 | 46 | 1014.5 |
| 20260509195647 | 26 | 212 | 9.7 | 14.5 | 0.00 | 0.00 | 0.00 | 43 | 1014.5 |
| 20260509195142 | 26 | 256 | 11.3 | 14.5 | 0.00 | 0.00 | 0.00 | 49 | 1014.6 |
| 20260509194637 | 26 | 252 | 6.4 | 12.9 | 0.00 | 0.00 | 0.00 | 45 | 1014.7 |
| 20260509194134 | 26 | 265 | 11.3 | 20.9 | 0.00 | 0.00 | 0.00 | 46 | 1014.6 |
| 20260509193630 | 26 | 267 | 6.4 | 11.3 | 0.00 | 0.00 | 0.00 | 47 | 1014.8 |
| 20260509193125 | 26 | 212 | 8.0 | 14.5 | 0.00 | 0.00 | 0.00 | 48 | 1014.8 |
| 20260509192623 | 26 | 258 | 4.8 | 11.3 | 0.00 | 0.00 | 0.00 | 44 | 1014.8 |
| 20260509192117 | 26 | 270 | 4.8 | 8.0 | 0.00 | 0.00 | 0.00 | 39 | 1014.9 |
| 20260509191612 | 26 | 250 | 6.4 | 9.7 | 0.00 | 0.00 | 0.00 | 50 | 1014.8 |
| 20260509191109 | 26 | 186 | 6.4 | 9.7 | 0.00 | 0.00 | 0.00 | 48 | 1014.8 |
| 20260509190605 | 26 | 222 | 11.3 | 17.7 | 0.00 | 0.00 | 0.00 | 48 | 1014.9 |
| 20260509185600 | 26 | 227 | 9.7 | 22.5 | 0.00 | 0.00 | 0.00 | 43 | 1014.9 |
| 20260509185056 | 26 | 235 | 6.4 | 8.0 | 0.00 | 0.00 | 0.00 | 42 | 1015.1 |
| 20260509184555 | 25 | 228 | 6.4 | 11.3 | 0.00 | 0.00 | 0.00 | 42 | 1014.9 |
| 20260509184051 | 25 | 242 | 12.9 | 16.1 | 0.00 | 0.00 | 0.00 | 45 | 1015.1 |
| 20260509183546 | 25 | 331 | 0.0 | 11.3 | 0.00 | 0.00 | 0.00 | 46 | 1014.8 |
| 20260509183042 | 25 | 225 | 6.4 | 14.5 | 0.00 | 0.00 | 0.00 | 47 | 1015.0 |
| 20260509182539 | 25 | 300 | 4.8 | 16.1 | 0.00 | 0.00 | 0.00 | 47 | 1015.1 |
| 20260509182036 | 25 | 246 | 11.3 | 20.9 | 0.00 | 0.00 | 0.00 | 46 | 1015.1 |
| 20260509181534 | 25 | 266 | 4.8 | 6.4 | 0.00 | 0.00 | 0.00 | 50 | 1015.2 |
| 20260509181031 | 25 | 259 | 6.4 | 11.3 | 0.00 | 0.00 | 0.00 | 46 | 1015.2 |
| 20260509180527 | 25 | 243 | 9.7 | 14.5 | 0.00 | 0.00 | 0.00 | 51 | 1015.2 |
| 20260509180025 | 25 | 235 | 12.9 | 14.5 | 0.00 | 0.00 | 0.00 | 54 | 1015.2 |
| 20260509175519 | 25 | 265 | 11.3 | 17.7 | 0.00 | 0.00 | 0.00 | 50 | 1015.2 |
| 20260509175016 | 25 | 219 | 8.0 | 12.9 | 0.00 | 0.00 | 0.00 | 54 | 1015.4 |
| 20260509174513 | 25 | 278 | 8.0 | 17.7 | 0.00 | 0.00 | 0.00 | 56 | 1015.4 |
| 20260509174008 | 25 | 228 | 9.7 | 17.7 | 0.00 | 0.00 | 0.00 | 60 | 1015.3 |
| 20260509173502 | 25 | 226 | 8.0 | 9.7 | 0.00 | 0.00 | 0.00 | 56 | 1015.4 |
| 20260509172959 | 25 | 223 | 9.7 | 16.1 | 0.00 | 0.00 | 0.00 | 57 | 1015.3 |
| 20260509172456 | 25 | 272 | 11.3 | 14.5 | 0.00 | 0.00 | 0.00 | 59 | 1015.2 |
| 20260509171952 | 24 | 262 | 8.0 | 11.3 | 0.00 | 0.00 | 0.00 | 56 | 1015.4 |
| 20260509171448 | 23 | 225 | 12.9 | 14.5 | 0.00 | 0.00 | 0.00 | 59 | 1015.4 |
| 20260509170945 | 24 | 212 | 11.3 | 14.5 | 0.00 | 0.00 | 0.00 | 61 | 1015.4 |
| 20260509170441 | 24 | 233 | 6.4 | 6.4 | 0.00 | 0.00 | 0.00 | 62 | 1015.5 |
| 20260509165937 | 23 | 265 | 6.4 | 16.1 | 0.00 | 0.00 | 0.00 | 60 | 1015.3 |
| 20260509165436 | 24 | 188 | 4.8 | 9.7 | 0.00 | 0.00 | 0.00 | 61 | 1015.3 |
| 20260509164932 | 23 | 238 | 11.3 | 12.9 | 0.00 | 0.00 | 0.00 | 61 | 1015.3 |
| 20260509164428 | 23 | 263 | 8.0 | 12.9 | 0.00 | 0.00 | 0.00 | 68 | 1015.4 |
| 20260509163924 | 22 | 210 | 8.0 | 14.5 | 0.00 | 0.00 | 0.00 | 63 | 1015.4 |
| 20260509163421 | 23 | 215 | 9.7 | 9.7 | 0.00 | 0.00 | 0.00 | 67 | 1015.5 |
| 20260509162920 | 23 | 213 | 9.7 | 12.9 | 0.00 | 0.00 | 0.00 | 61 | 1015.4 |
| 20260509162419 | 22 | 218 | 11.3 | 16.1 | 0.00 | 0.00 | 0.00 | 64 | 1015.3 |
| 20260509161915 | 22 | 220 | 9.7 | 16.1 | 0.00 | 0.00 | 0.00 | 71 | 1015.3 |
| 20260509161411 | 22 | 229 | 8.0 | 12.9 | 0.00 | 0.00 | 0.00 | 70 | 1015.3 |
| 20260509160907 | 22 | 219 | 9.7 | 14.5 | 0.00 | 0.00 | 0.00 | 72 | 1015.3 |
| 20260509160408 | 22 | 287 | 11.3 | 14.5 | 0.00 | 0.00 | 0.00 | 68 | 1015.5 |
| 20260509155903 | 22 | 245 | 6.4 | 16.1 | 0.00 | 0.00 | 0.00 | 71 | 1015.4 |
| 20260509155400 | 22 | 213 | 8.0 | 12.9 | 0.00 | 0.00 | 0.00 | 71 | 1015.4 |
| 20260509154856 | 21 | 209 | 9.7 | 12.9 | 0.00 | 0.00 | 0.00 | 71 | 1015.3 |
| 20260509154353 | 21 | 211 | 8.0 | 12.9 | 0.00 | 0.00 | 0.00 | 75 | 1015.4 |
| 20260509153850 | 21 | 245 | 6.4 | 14.5 | 0.00 | 0.00 | 0.00 | 75 | 1015.1 |